sensor_id;sensor_type;location;lat;lon;timestamp;pressure;altitude;pressure_sealevel;temperature;humidity
68889;BME280;55930;47.412;8.790;2022-08-14T00:00:27;94302.34;;;14.39;72.21
68889;BME280;55930;47.412;8.790;2022-08-14T00:02:52;94293.84;;;14.46;72.11
68889;BME280;55930;47.412;8.790;2022-08-14T00:05:20;94292.91;;;14.22;71.62
68889;BME280;55930;47.412;8.790;2022-08-14T00:07:46;94290.50;;;14.07;72.53
68889;BME280;55930;47.412;8.790;2022-08-14T00:10:16;94281.81;;;13.78;73.88
68889;BME280;55930;47.412;8.790;2022-08-14T00:12:45;94290.28;;;13.88;73.14
68889;BME280;55930;47.412;8.790;2022-08-14T00:17:40;94283.25;;;13.74;75.43
68889;BME280;55930;47.412;8.790;2022-08-14T00:20:07;94272.84;;;13.87;74.63
68889;BME280;55930;47.412;8.790;2022-08-14T00:22:33;94278.84;;;14.10;73.26
68889;BME280;55930;47.412;8.790;2022-08-14T00:24:59;94269.19;;;13.96;73.37
68889;BME280;55930;47.412;8.790;2022-08-14T00:27:24;94267.50;;;13.87;74.01
68889;BME280;55930;47.412;8.790;2022-08-14T00:29:50;94264.84;;;13.87;73.82
68889;BME280;55930;47.412;8.790;2022-08-14T00:32:15;94270.66;;;13.86;73.84
68889;BME280;55930;47.412;8.790;2022-08-14T00:34:41;94254.41;;;13.95;73.68
68889;BME280;55930;47.412;8.790;2022-08-14T00:37:06;94253.94;;;13.79;74.86
68889;BME280;55930;47.412;8.790;2022-08-14T00:39:32;94246.16;;;13.76;75.04
68889;BME280;55930;47.412;8.790;2022-08-14T00:41:57;94262.88;;;13.88;75.36
68889;BME280;55930;47.412;8.790;2022-08-14T00:44:23;94262.88;;;13.76;75.74
68889;BME280;55930;47.412;8.790;2022-08-14T00:46:48;94257.06;;;13.89;74.84
68889;BME280;55930;47.412;8.790;2022-08-14T00:49:14;94252.22;;;13.93;74.24
68889;BME280;55930;47.412;8.790;2022-08-14T00:51:41;94252.72;;;13.86;75.36
68889;BME280;55930;47.412;8.790;2022-08-14T00:54:08;94250.50;;;13.90;75.03
68889;BME280;55930;47.412;8.790;2022-08-14T00:56:34;94244.22;;;13.65;75.36
68889;BME280;55930;47.412;8.790;2022-08-14T00:59:03;94235.75;;;13.50;76.09
68889;BME280;55930;47.412;8.790;2022-08-14T01:01:28;94233.81;;;13.62;76.00
68889;BME280;55930;47.412;8.790;2022-08-14T01:03:58;94232.63;;;13.63;76.79
68889;BME280;55930;47.412;8.790;2022-08-14T01:06:26;94230.19;;;13.59;76.40
68889;BME280;55930;47.412;8.790;2022-08-14T01:08:54;94233.09;;;13.61;76.42
68889;BME280;55930;47.412;8.790;2022-08-14T01:11:22;94228.75;;;13.47;75.95
68889;BME280;55930;47.412;8.790;2022-08-14T01:13:50;94223.63;;;13.49;74.70
68889;BME280;55930;47.412;8.790;2022-08-14T01:16:23;94222.91;;;13.26;75.41
68889;BME280;55930;47.412;8.790;2022-08-14T01:18:49;94224.38;;;13.38;74.78
68889;BME280;55930;47.412;8.790;2022-08-14T01:21:35;94217.59;;;13.49;75.07
68889;BME280;55930;47.412;8.790;2022-08-14T01:24:01;94210.56;;;13.46;75.94
68889;BME280;55930;47.412;8.790;2022-08-14T01:26:27;94206.44;;;13.61;75.99
68889;BME280;55930;47.412;8.790;2022-08-14T01:28:55;94212.00;;;13.52;76.55
68889;BME280;55930;47.412;8.790;2022-08-14T01:31:26;94205.97;;;13.46;76.60
68889;BME280;55930;47.412;8.790;2022-08-14T01:33:54;94198.44;;;13.50;76.78
68889;BME280;55930;47.412;8.790;2022-08-14T01:36:22;94190.22;;;13.31;77.54
68889;BME280;55930;47.412;8.790;2022-08-14T01:38:48;94203.03;;;13.33;77.72
68889;BME280;55930;47.412;8.790;2022-08-14T01:41:17;94203.53;;;13.43;77.17
68889;BME280;55930;47.412;8.790;2022-08-14T01:43:50;94193.59;;;13.43;77.68
68889;BME280;55930;47.412;8.790;2022-08-14T01:46:21;94192.16;;;13.31;77.86
68889;BME280;55930;47.412;8.790;2022-08-14T01:48:50;94190.19;;;13.09;78.36
68889;BME280;55930;47.412;8.790;2022-08-14T01:51:18;94193.31;;;13.02;75.78
68889;BME280;55930;47.412;8.790;2022-08-14T01:53:54;94196.44;;;12.78;76.36
68889;BME280;55930;47.412;8.790;2022-08-14T01:56:26;94192.06;;;12.70;76.29
68889;BME280;55930;47.412;8.790;2022-08-14T01:59:52;94191.09;;;12.73;77.10
68889;BME280;55930;47.412;8.790;2022-08-14T02:02:14;94182.84;;;12.65;76.86
68889;BME280;55930;47.412;8.790;2022-08-14T02:04:42;94180.22;;;12.87;75.92
68889;BME280;55930;47.412;8.790;2022-08-14T02:07:08;94178.03;;;12.86;76.78
68889;BME280;55930;47.412;8.790;2022-08-14T02:09:35;94179.97;;;12.80;78.33
68889;BME280;55930;47.412;8.790;2022-08-14T02:12:05;94176.84;;;12.81;78.67
68889;BME280;55930;47.412;8.790;2022-08-14T02:14:30;94185.06;;;12.89;78.57
68889;BME280;55930;47.412;8.790;2022-08-14T02:16:58;94177.81;;;12.95;77.62
68889;BME280;55930;47.412;8.790;2022-08-14T02:19:26;94178.03;;;12.86;77.14
68889;BME280;55930;47.412;8.790;2022-08-14T02:21:54;94171.00;;;12.72;78.70
68889;BME280;55930;47.412;8.790;2022-08-14T02:24:21;94164.47;;;12.67;79.31
68889;BME280;55930;47.412;8.790;2022-08-14T02:26:49;94154.75;;;12.47;78.97
68889;BME280;55930;47.412;8.790;2022-08-14T02:29:20;94159.06;;;12.34;79.26
68889;BME280;55930;47.412;8.790;2022-08-14T02:31:52;94155.72;;;12.44;78.41
68889;BME280;55930;47.412;8.790;2022-08-14T02:34:21;94154.53;;;12.56;78.11
68889;BME280;55930;47.412;8.790;2022-08-14T02:36:52;94155.25;;;12.62;79.35
68889;BME280;55930;47.412;8.790;2022-08-14T02:39:18;94149.69;;;12.55;81.24
68889;BME280;55930;47.412;8.790;2022-08-14T02:41:44;94142.94;;;12.59;81.46
68889;BME280;55930;47.412;8.790;2022-08-14T02:44:15;94146.34;;;12.65;81.45
68889;BME280;55930;47.412;8.790;2022-08-14T02:46:43;94142.22;;;12.64;80.76
68889;BME280;55930;47.412;8.790;2022-08-14T02:49:09;94133.50;;;12.64;80.10
68889;BME280;55930;47.412;8.790;2022-08-14T02:51:35;94132.50;;;12.45;80.70
68889;BME280;55930;47.412;8.790;2022-08-14T02:54:01;94130.06;;;12.41;81.88
68889;BME280;55930;47.412;8.790;2022-08-14T02:56:27;94128.66;;;12.62;81.44
68889;BME280;55930;47.412;8.790;2022-08-14T02:58:55;94121.88;;;12.61;80.46
68889;BME280;55930;47.412;8.790;2022-08-14T03:01:22;94120.41;;;12.44;82.16
68889;BME280;55930;47.412;8.790;2022-08-14T03:03:48;94106.38;;;12.43;82.20
68889;BME280;55930;47.412;8.790;2022-08-14T03:06:20;94100.81;;;12.47;81.12
68889;BME280;55930;47.412;8.790;2022-08-14T03:08:55;94094.28;;;12.42;80.86
68889;BME280;55930;47.412;8.790;2022-08-14T03:11:21;94088.47;;;12.38;81.30
68889;BME280;55930;47.412;8.790;2022-08-14T03:13:49;94079.69;;;12.04;80.30
68889;BME280;55930;47.412;8.790;2022-08-14T03:16:23;94086.69;;;12.07;80.45
68889;BME280;55930;47.412;8.790;2022-08-14T03:18:51;94081.59;;;11.93;81.10
68889;BME280;55930;47.412;8.790;2022-08-14T03:21:21;94080.44;;;12.21;82.03
68889;BME280;55930;47.412;8.790;2022-08-14T03:23:51;94079.78;;;12.49;83.02
68889;BME280;55930;47.412;8.790;2022-08-14T03:26:23;94068.19;;;12.63;81.69
68889;BME280;55930;47.412;8.790;2022-08-14T03:28:51;94063.59;;;12.58;81.95
68889;BME280;55930;47.412;8.790;2022-08-14T03:31:18;94066.69;;;12.40;82.39
68889;BME280;55930;47.412;8.790;2022-08-14T03:33:47;94072.25;;;12.19;79.25
68889;BME280;55930;47.412;8.790;2022-08-14T03:36:16;94069.09;;;12.21;78.74
68889;BME280;55930;47.412;8.790;2022-08-14T03:38:45;94068.63;;;12.28;78.75
68889;BME280;55930;47.412;8.790;2022-08-14T03:41:17;94086.06;;;12.35;79.77
68889;BME280;55930;47.412;8.790;2022-08-14T03:43:44;94077.81;;;12.38;79.63
68889;BME280;55930;47.412;8.790;2022-08-14T03:46:12;94077.47;;;11.92;79.96
68889;BME280;55930;47.412;8.790;2022-08-14T03:48:42;94082.84;;;12.08;79.50
68889;BME280;55930;47.412;8.790;2022-08-14T03:51:09;94084.56;;;12.17;79.22
68889;BME280;55930;47.412;8.790;2022-08-14T03:53:37;94084.78;;;12.13;79.71
68889;BME280;55930;47.412;8.790;2022-08-14T03:56:09;94089.09;;;12.00;80.93
68889;BME280;55930;47.412;8.790;2022-08-14T03:58:50;94087.94;;;12.12;80.14
68889;BME280;55930;47.412;8.790;2022-08-14T04:01:18;94092.22;;;11.98;81.48
68889;BME280;55930;47.412;8.790;2022-08-14T04:03:45;94089.81;;;11.95;81.77
68889;BME280;55930;47.412;8.790;2022-08-14T04:06:11;94093.19;;;11.95;84.03
68889;BME280;55930;47.412;8.790;2022-08-14T04:08:38;94077.44;;;11.80;84.62
68889;BME280;55930;47.412;8.790;2022-08-14T04:11:08;94070.03;;;12.07;82.53
68889;BME280;55930;47.412;8.790;2022-08-14T04:13:37;94079.97;;;12.23;82.15
68889;BME280;55930;47.412;8.790;2022-08-14T04:16:19;94085.28;;;12.12;80.90
68889;BME280;55930;47.412;8.790;2022-08-14T04:18:50;94082.25;;;11.82;80.79
68889;BME280;55930;47.412;8.790;2022-08-14T04:21:17;94080.69;;;11.59;82.38
68889;BME280;55930;47.412;8.790;2022-08-14T04:23:44;94075.97;;;11.79;82.15
68889;BME280;55930;47.412;8.790;2022-08-14T04:26:12;94076.66;;;11.74;82.64
68889;BME280;55930;47.412;8.790;2022-08-14T04:28:40;94079.13;;;11.83;81.57
68889;BME280;55930;47.412;8.790;2022-08-14T04:31:06;94070.00;;;12.01;80.32
68889;BME280;55930;47.412;8.790;2022-08-14T04:33:32;94063.66;;;11.82;81.40
68889;BME280;55930;47.412;8.790;2022-08-14T04:36:01;94073.84;;;11.95;82.01
68889;BME280;55930;47.412;8.790;2022-08-14T04:38:26;94075.31;;;12.01;82.41
68889;BME280;55930;47.412;8.790;2022-08-14T04:41:11;94078.75;;;12.18;81.35
68889;BME280;55930;47.412;8.790;2022-08-14T04:43:55;94087.22;;;12.11;82.10
68889;BME280;55930;47.412;8.790;2022-08-14T04:46:22;94084.56;;;12.17;81.85
68889;BME280;55930;47.412;8.790;2022-08-14T04:48:49;94079.97;;;12.23;80.85
68889;BME280;55930;47.412;8.790;2022-08-14T04:51:18;94087.00;;;12.26;81.30
68889;BME280;55930;47.412;8.790;2022-08-14T04:53:48;94085.53;;;12.25;80.82
68889;BME280;55930;47.412;8.790;2022-08-14T04:56:16;94087.97;;;12.29;80.34
68889;BME280;55930;47.412;8.790;2022-08-14T04:58:42;94083.81;;;12.11;80.21
68889;BME280;55930;47.412;8.790;2022-08-14T05:01:11;94085.97;;;12.07;80.62
68889;BME280;55930;47.412;8.790;2022-08-14T05:03:39;94083.03;;;11.99;80.75
68889;BME280;55930;47.412;8.790;2022-08-14T05:06:09;94095.41;;;12.08;80.24
68889;BME280;55930;47.412;8.790;2022-08-14T05:08:37;94088.97;;;12.42;79.83
68889;BME280;55930;47.412;8.790;2022-08-14T05:11:06;94096.22;;;12.42;79.56
68889;BME280;55930;47.412;8.790;2022-08-14T05:13:33;94093.09;;;12.49;80.32
68889;BME280;55930;47.412;8.790;2022-08-14T05:16:00;94090.66;;;12.62;79.30
68889;BME280;55930;47.412;8.790;2022-08-14T05:18:31;94093.81;;;12.72;79.41
68889;BME280;55930;47.412;8.790;2022-08-14T05:20:59;94093.84;;;12.83;78.68
68889;BME280;55930;47.412;8.790;2022-08-14T05:23:27;94091.44;;;12.85;79.62
68889;BME280;55930;47.412;8.790;2022-08-14T05:25:55;94096.75;;;13.07;77.72
68889;BME280;55930;47.412;8.790;2022-08-14T05:28:31;94094.09;;;13.18;77.20
68889;BME280;55930;47.412;8.790;2022-08-14T05:31:00;94087.53;;;13.30;76.62
68889;BME280;55930;47.412;8.790;2022-08-14T05:33:27;94074.91;;;13.42;75.32
68889;BME280;55930;47.412;8.790;2022-08-14T05:35:55;94072.78;;;13.24;76.08
68889;BME280;55930;47.412;8.790;2022-08-14T05:38:30;94065.72;;;13.49;75.02
68889;BME280;55930;47.412;8.790;2022-08-14T05:41:06;94068.56;;;13.62;74.06
68889;BME280;55930;47.412;8.790;2022-08-14T05:43:35;94061.22;;;13.85;73.71
68889;BME280;55930;47.412;8.790;2022-08-14T05:46:03;94058.44;;;14.12;72.25
68889;BME280;55930;47.412;8.790;2022-08-14T05:48:29;94061.09;;;14.12;71.78
68889;BME280;55930;47.412;8.790;2022-08-14T05:50:57;94053.50;;;14.28;72.32
68889;BME280;55930;47.412;8.790;2022-08-14T05:53:25;94039.38;;;14.38;71.99
68889;BME280;55930;47.412;8.790;2022-08-14T05:55:50;94032.06;;;14.74;71.59
68889;BME280;55930;47.412;8.790;2022-08-14T05:58:16;94027.69;;;15.01;70.41
68889;BME280;55930;47.412;8.790;2022-08-14T06:00:43;94019.84;;;15.09;70.41
68889;BME280;55930;47.412;8.790;2022-08-14T06:03:18;94020.75;;;15.41;69.33
68889;BME280;55930;47.412;8.790;2022-08-14T06:05:46;94015.06;;;15.75;68.13
68889;BME280;55930;47.412;8.790;2022-08-14T06:08:20;94009.03;;;16.25;67.55
68889;BME280;55930;47.412;8.790;2022-08-14T06:10:49;94000.44;;;16.64;64.55
68889;BME280;55930;47.412;8.790;2022-08-14T06:13:15;93994.94;;;16.88;64.74
68889;BME280;55930;47.412;8.790;2022-08-14T06:15:41;93990.13;;;17.13;62.31
68889;BME280;55930;47.412;8.790;2022-08-14T06:18:07;93986.22;;;17.27;59.79
68889;BME280;55930;47.412;8.790;2022-08-14T06:20:33;93999.22;;;17.63;60.82
68889;BME280;55930;47.412;8.790;2022-08-14T06:22:58;94005.88;;;17.95;61.06
68889;BME280;55930;47.412;8.790;2022-08-14T06:25:24;93996.09;;;18.19;60.71
68889;BME280;55930;47.412;8.790;2022-08-14T06:27:53;93996.09;;;18.19;58.54
68889;BME280;55930;47.412;8.790;2022-08-14T06:30:23;93999.91;;;18.57;58.72
68889;BME280;55930;47.412;8.790;2022-08-14T06:32:49;94008.53;;;18.63;58.84
68889;BME280;55930;47.412;8.790;2022-08-14T06:35:15;94006.28;;;18.54;59.36
68889;BME280;55930;47.412;8.790;2022-08-14T06:37:56;94008.41;;;18.90;58.15
68889;BME280;55930;47.412;8.790;2022-08-14T06:40:27;93998.91;;;19.17;56.65
68889;BME280;55930;47.412;8.790;2022-08-14T06:42:53;94010.91;;;19.16;58.11
68889;BME280;55930;47.412;8.790;2022-08-14T06:45:19;94007.91;;;19.48;57.25
68889;BME280;55930;47.412;8.790;2022-08-14T06:47:46;94010.25;;;19.87;55.84
68889;BME280;55930;47.412;8.790;2022-08-14T06:50:16;94011.88;;;20.34;54.51
68889;BME280;55930;47.412;8.790;2022-08-14T06:52:45;94016.06;;;20.50;54.37
68889;BME280;55930;47.412;8.790;2022-08-14T06:55:11;94011.75;;;20.85;53.12
68889;BME280;55930;47.412;8.790;2022-08-14T06:57:39;94011.41;;;20.74;53.66
68889;BME280;55930;47.412;8.790;2022-08-14T07:00:09;94016.81;;;21.04;53.68
68889;BME280;55930;47.412;8.790;2022-08-14T07:02:35;94006.56;;;21.02;51.71
68889;BME280;55930;47.412;8.790;2022-08-14T07:05:20;94013.91;;;21.02;51.19
68889;BME280;55930;47.412;8.790;2022-08-14T07:08:04;94016.25;;;20.75;53.85
68889;BME280;55930;47.412;8.790;2022-08-14T07:10:30;94024.59;;;20.26;56.67
68889;BME280;55930;47.412;8.790;2022-08-14T07:12:56;94031.16;;;20.91;53.75
68889;BME280;55930;47.412;8.790;2022-08-14T07:15:22;94037.13;;;20.97;53.79
68889;BME280;55930;47.412;8.790;2022-08-14T07:17:49;94029.19;;;20.99;53.34
68889;BME280;55930;47.412;8.790;2022-08-14T07:20:14;94024.38;;;21.06;54.65
68889;BME280;55930;47.412;8.790;2022-08-14T07:22:44;94016.72;;;20.43;55.29
68889;BME280;55930;47.412;8.790;2022-08-14T07:25:12;94016.44;;;20.92;54.27
68889;BME280;55930;47.412;8.790;2022-08-14T07:27:39;94019.22;;;21.78;51.22
68889;BME280;55930;47.412;8.790;2022-08-14T07:30:05;94019.06;;;21.68;51.47
68889;BME280;55930;47.412;8.790;2022-08-14T07:32:31;94021.78;;;22.24;51.41
68889;BME280;55930;47.412;8.790;2022-08-14T07:34:57;94029.34;;;21.62;52.38
68889;BME280;55930;47.412;8.790;2022-08-14T07:37:25;94036.78;;;22.09;50.50
68889;BME280;55930;47.412;8.790;2022-08-14T07:39:53;94039.06;;;21.58;50.86
68889;BME280;55930;47.412;8.790;2022-08-14T07:42:18;94037.69;;;22.04;49.00
68889;BME280;55930;47.412;8.790;2022-08-14T07:44:44;94032.47;;;22.06;49.33
68889;BME280;55930;47.412;8.790;2022-08-14T07:47:10;94023.41;;;22.51;50.25
68889;BME280;55930;47.412;8.790;2022-08-14T07:49:40;94023.81;;;23.05;46.63
68889;BME280;55930;47.412;8.790;2022-08-14T07:52:05;94035.94;;;22.97;47.05
68889;BME280;55930;47.412;8.790;2022-08-14T07:54:33;94027.47;;;23.17;46.58
68889;BME280;55930;47.412;8.790;2022-08-14T07:56:59;94035.94;;;22.39;48.19
68889;BME280;55930;47.412;8.790;2022-08-14T07:59:26;94038.72;;;22.89;48.48
68889;BME280;55930;47.412;8.790;2022-08-14T08:01:54;94021.47;;;23.02;47.95
68889;BME280;55930;47.412;8.790;2022-08-14T08:04:27;94024.66;;;22.58;48.37
68889;BME280;55930;47.412;8.790;2022-08-14T08:06:54;94011.19;;;23.42;46.41
68889;BME280;55930;47.412;8.790;2022-08-14T08:09:25;93994.28;;;23.59;46.50
68889;BME280;55930;47.412;8.790;2022-08-14T08:11:51;93996.66;;;23.72;46.11
68889;BME280;55930;47.412;8.790;2022-08-14T08:14:18;94002.22;;;23.91;45.44
68889;BME280;55930;47.412;8.790;2022-08-14T08:16:45;94002.59;;;24.05;46.04
68889;BME280;55930;47.412;8.790;2022-08-14T08:19:11;94005.91;;;24.30;42.98
68889;BME280;55930;47.412;8.790;2022-08-14T08:21:42;94017.31;;;24.12;45.03
68889;BME280;55930;47.412;8.790;2022-08-14T08:24:08;94018.41;;;23.82;44.76
68889;BME280;55930;47.412;8.790;2022-08-14T08:26:33;94009.63;;;24.08;45.73
68889;BME280;55930;47.412;8.790;2022-08-14T08:29:03;94015.09;;;24.18;44.81
68889;BME280;55930;47.412;8.790;2022-08-14T08:31:28;94016.50;;;24.19;45.70
68889;BME280;55930;47.412;8.790;2022-08-14T08:33:58;94019.53;;;24.40;45.08
68889;BME280;55930;47.412;8.790;2022-08-14T08:36:39;94013.56;;;24.42;44.26
68889;BME280;55930;47.412;8.790;2022-08-14T08:39:07;94012.97;;;24.43;44.56
68889;BME280;55930;47.412;8.790;2022-08-14T08:41:44;94009.84;;;24.47;43.80
68889;BME280;55930;47.412;8.790;2022-08-14T08:44:11;94011.19;;;24.28;45.02
68889;BME280;55930;47.412;8.790;2022-08-14T08:46:37;94002.81;;;24.34;44.20
68889;BME280;55930;47.412;8.790;2022-08-14T08:49:09;93998.44;;;24.85;43.38
68889;BME280;55930;47.412;8.790;2022-08-14T08:51:38;94003.59;;;24.81;44.18
68889;BME280;55930;47.412;8.790;2022-08-14T08:54:19;93989.84;;;25.15;44.46
68889;BME280;55930;47.412;8.790;2022-08-14T08:56:47;93974.38;;;24.98;45.17
68889;BME280;55930;47.412;8.790;2022-08-14T09:01:49;93987.41;;;25.09;43.17
68889;BME280;55930;47.412;8.790;2022-08-14T09:04:16;93979.91;;;25.37;43.20
68889;BME280;55930;47.412;8.790;2022-08-14T09:06:44;93983.38;;;25.66;42.46
68889;BME280;55930;47.412;8.790;2022-08-14T09:09:27;93981.19;;;25.45;42.88
68889;BME280;55930;47.412;8.790;2022-08-14T09:11:54;93989.06;;;25.80;42.47
68889;BME280;55930;47.412;8.790;2022-08-14T09:14:23;93994.66;;;25.82;41.75
68889;BME280;55930;47.412;8.790;2022-08-14T09:16:50;93990.78;;;26.04;42.66
68889;BME280;55930;47.412;8.790;2022-08-14T09:19:17;93987.75;;;26.39;40.73
68889;BME280;55930;47.412;8.790;2022-08-14T09:21:43;93992.06;;;26.13;40.19
68889;BME280;55930;47.412;8.790;2022-08-14T09:24:10;93994.66;;;25.63;41.46
68889;BME280;55930;47.412;8.790;2022-08-14T09:26:36;93997.63;;;26.34;42.46
68889;BME280;55930;47.412;8.790;2022-08-14T09:29:05;93999.91;;;26.18;41.40
68889;BME280;55930;47.412;8.790;2022-08-14T09:31:33;93995.75;;;26.77;40.66
68889;BME280;55930;47.412;8.790;2022-08-14T09:34:06;93994.72;;;26.51;42.68
68889;BME280;55930;47.412;8.790;2022-08-14T09:40:12;93996.81;;;26.72;41.21
68889;BME280;55930;47.412;8.790;2022-08-14T09:43:05;94001.97;;;26.58;42.84
68889;BME280;55930;47.412;8.790;2022-08-14T09:45:42;94008.72;;;26.98;41.33
68889;BME280;55930;47.412;8.790;2022-08-14T09:48:27;94002.38;;;27.36;41.08
68889;BME280;55930;47.412;8.790;2022-08-14T09:50:56;94012.03;;;26.56;40.69
68889;BME280;55930;47.412;8.790;2022-08-14T09:54:07;94008.28;;;27.01;41.62
68889;BME280;55930;47.412;8.790;2022-08-14T09:56:48;94012.00;;;27.06;40.22
68889;BME280;55930;47.412;8.790;2022-08-14T09:59:15;94002.72;;;27.52;40.46
68889;BME280;55930;47.412;8.790;2022-08-14T10:01:43;94002.00;;;27.51;40.67
68889;BME280;55930;47.412;8.790;2022-08-14T10:04:21;93990.78;;;28.67;39.08
68889;BME280;55930;47.412;8.790;2022-08-14T10:06:48;93979.66;;;28.18;36.52
68889;BME280;55930;47.412;8.790;2022-08-14T10:09:16;93978.06;;;27.71;37.04
68889;BME280;55930;47.412;8.790;2022-08-14T10:11:56;93968.06;;;27.21;37.01
68889;BME280;55930;47.412;8.790;2022-08-14T10:14:24;93972.34;;;27.67;37.63
68889;BME280;55930;47.412;8.790;2022-08-14T10:16:55;93966.91;;;28.00;36.95
68889;BME280;55930;47.412;8.790;2022-08-14T10:19:25;93966.28;;;28.34;36.85
68889;BME280;55930;47.412;8.790;2022-08-14T10:21:57;93962.66;;;28.53;36.84
68889;BME280;55930;47.412;8.790;2022-08-14T10:24:28;93961.69;;;28.37;36.59
68889;BME280;55930;47.412;8.790;2022-08-14T10:26:58;93968.28;;;28.22;35.89
68889;BME280;55930;47.412;8.790;2022-08-14T10:29:34;93972.13;;;28.52;36.44
68889;BME280;55930;47.412;8.790;2022-08-14T10:32:02;93969.59;;;28.21;35.55
68889;BME280;55930;47.412;8.790;2022-08-14T10:34:35;93975.00;;;28.54;35.87
68889;BME280;55930;47.412;8.790;2022-08-14T10:37:05;93973.84;;;28.80;33.58
68889;BME280;55930;47.412;8.790;2022-08-14T10:39:34;93973.53;;;29.58;33.27
68889;BME280;55930;47.412;8.790;2022-08-14T10:42:03;93973.44;;;29.44;31.83
68889;BME280;55930;47.412;8.790;2022-08-14T10:44:47;93975.75;;;29.13;32.23
68889;BME280;55930;47.412;8.790;2022-08-14T10:47:18;93973.44;;;29.33;33.63
68889;BME280;55930;47.412;8.790;2022-08-14T10:50:00;93966.81;;;29.36;31.62
68889;BME280;55930;47.412;8.790;2022-08-14T10:52:28;93962.31;;;30.94;30.27
68889;BME280;55930;47.412;8.790;2022-08-14T10:57:52;93968.41;;;30.40;31.98
68889;BME280;55930;47.412;8.790;2022-08-14T11:00:20;93959.66;;;30.83;29.53
68889;BME280;55930;47.412;8.790;2022-08-14T11:03:14;93951.09;;;29.85;30.56
68889;BME280;55930;47.412;8.790;2022-08-14T11:05:44;93963.34;;;30.87;31.89
68889;BME280;55930;47.412;8.790;2022-08-14T11:08:13;93960.78;;;30.25;29.99
68889;BME280;55930;47.412;8.790;2022-08-14T11:13:08;93961.09;;;30.05;29.42
68889;BME280;55930;47.412;8.790;2022-08-14T11:15:34;93960.78;;;30.64;29.13
68889;BME280;55930;47.412;8.790;2022-08-14T11:18:02;93959.56;;;30.28;28.99
68889;BME280;55930;47.412;8.790;2022-08-14T11:20:30;93960.50;;;30.46;29.30
68889;BME280;55930;47.412;8.790;2022-08-14T11:23:00;93960.59;;;31.14;29.06
68889;BME280;55930;47.412;8.790;2022-08-14T11:25:27;93974.41;;;30.11;27.46
68889;BME280;55930;47.412;8.790;2022-08-14T11:27:56;93976.16;;;30.57;27.69
68889;BME280;55930;47.412;8.790;2022-08-14T11:30:27;93975.91;;;30.65;27.95
68889;BME280;55930;47.412;8.790;2022-08-14T11:32:53;93970.75;;;31.39;28.15
68889;BME280;55930;47.412;8.790;2022-08-14T11:35:21;93971.66;;;31.03;28.73
68889;BME280;55930;47.412;8.790;2022-08-14T11:38:02;93975.38;;;30.68;28.17
68889;BME280;55930;47.412;8.790;2022-08-14T11:40:28;93981.28;;;29.26;30.20
68889;BME280;55930;47.412;8.790;2022-08-14T11:42:55;93991.09;;;30.54;27.98
68889;BME280;55930;47.412;8.790;2022-08-14T11:45:23;93984.91;;;30.67;27.77
68889;BME280;55930;47.412;8.790;2022-08-14T11:47:50;93976.59;;;30.01;29.08
68889;BME280;55930;47.412;8.790;2022-08-14T11:50:22;93988.59;;;30.08;30.58
68889;BME280;55930;47.412;8.790;2022-08-14T11:52:48;93972.34;;;29.49;31.56
68889;BME280;55930;47.412;8.790;2022-08-14T11:55:18;93985.75;;;31.38;31.47
68889;BME280;55930;47.412;8.790;2022-08-14T11:57:58;93985.25;;;29.12;33.13
68889;BME280;55930;47.412;8.790;2022-08-14T12:00:25;93985.91;;;29.47;32.74
68889;BME280;55930;47.412;8.790;2022-08-14T12:02:55;93980.34;;;29.45;34.56
68889;BME280;55930;47.412;8.790;2022-08-14T12:05:38;93981.16;;;29.48;34.66
68889;BME280;55930;47.412;8.790;2022-08-14T12:08:07;93975.50;;;28.97;35.19
68889;BME280;55930;47.412;8.790;2022-08-14T12:10:37;93978.31;;;29.34;34.31
68889;BME280;55930;47.412;8.790;2022-08-14T12:13:16;93981.06;;;29.22;36.09
68889;BME280;55930;47.412;8.790;2022-08-14T12:15:44;93982.19;;;29.66;34.67
68889;BME280;55930;47.412;8.790;2022-08-14T12:18:13;93979.28;;;29.76;34.52
68889;BME280;55930;47.412;8.790;2022-08-14T12:20:42;93978.19;;;29.44;35.25
68889;BME280;55930;47.412;8.790;2022-08-14T12:23:20;93961.94;;;29.71;33.51
68889;BME280;55930;47.412;8.790;2022-08-14T12:25:46;93978.19;;;29.32;33.94
68889;BME280;55930;47.412;8.790;2022-08-14T12:28:12;93970.75;;;29.69;33.18
68889;BME280;55930;47.412;8.790;2022-08-14T12:30:43;93973.28;;;29.54;33.85
68889;BME280;55930;47.412;8.790;2022-08-14T12:33:38;93970.53;;;29.05;34.71
68889;BME280;55930;47.412;8.790;2022-08-14T12:36:18;93966.38;;;29.90;33.62
68889;BME280;55930;47.412;8.790;2022-08-14T12:38:47;93964.94;;;29.63;34.83
68889;BME280;55930;47.412;8.790;2022-08-14T12:41:18;93970.25;;;29.73;34.07
68889;BME280;55930;47.412;8.790;2022-08-14T12:43:54;93961.22;;;29.45;34.01
68889;BME280;55930;47.412;8.790;2022-08-14T12:46:32;93972.25;;;28.54;35.85
68889;BME280;55930;47.412;8.790;2022-08-14T12:49:15;93969.53;;;29.24;34.74
68889;BME280;55930;47.412;8.790;2022-08-14T12:51:43;93958.31;;;29.55;34.57
68889;BME280;55930;47.412;8.790;2022-08-14T12:54:12;93960.94;;;29.29;35.94
68889;BME280;55930;47.412;8.790;2022-08-14T12:56:39;93956.69;;;29.26;35.56
68889;BME280;55930;47.412;8.790;2022-08-14T12:59:04;93950.31;;;28.52;36.32
68889;BME280;55930;47.412;8.790;2022-08-14T13:01:31;93958.38;;;28.05;37.25
68889;BME280;55930;47.412;8.790;2022-08-14T13:04:07;93960.91;;;29.04;35.97
68889;BME280;55930;47.412;8.790;2022-08-14T13:06:37;93958.84;;;27.48;37.71
68889;BME280;55930;47.412;8.790;2022-08-14T13:09:04;93948.50;;;28.33;36.69
68889;BME280;55930;47.412;8.790;2022-08-14T13:11:49;93949.13;;;27.99;36.60
68889;BME280;55930;47.412;8.790;2022-08-14T13:14:18;93946.63;;;28.59;36.37
68889;BME280;55930;47.412;8.790;2022-08-14T13:16:45;93931.78;;;28.62;36.01
68889;BME280;55930;47.412;8.790;2022-08-14T13:19:14;93932.19;;;28.80;35.03
68889;BME280;55930;47.412;8.790;2022-08-14T13:21:41;93924.50;;;27.75;35.84
68889;BME280;55930;47.412;8.790;2022-08-14T13:24:07;93926.72;;;28.00;35.26
68889;BME280;55930;47.412;8.790;2022-08-14T13:26:48;93929.75;;;28.98;33.13